Time;durP1;ratioP1;P1;durP2;ratioP2;P2;SDS_P1;SDS_P2;PMS_P1;PMS_P2;Temp;Humidity;BMP_temperature;BMP_pressure;BME280_temperature;BME280_humidity;BME280_pressure;Samples;Min_cycle;Max_cycle;Signal;HPM_P1;HPM_P2
2021/12/07 00:01:45;;;;;;;21.55;15.23;;;2.30;99.90;;;;;;4998710;28;20461;-82
2021/12/07 00:04:11;;;;;;;20.02;14.70;;;2.30;99.90;;;;;;5004800;28;20050;-79
2021/12/07 00:06:37;;;;;;;20.83;15.43;;;2.30;99.90;;;;;;5009996;28;20048;-82
2021/12/07 00:09:10;;;;;;;24.58;16.27;;;2.10;99.90;;;;;;4982017;28;20034;-78
2021/12/07 00:11:36;;;;;;;23.75;15.93;;;2.30;99.90;;;;;;5010441;28;20441;-84
2021/12/07 00:14:11;;;;;;;23.08;15.27;;;3.70;99.90;;;;;;5011590;28;20048;-79
2021/12/07 00:16:37;;;;;;;20.38;15.23;;;3.70;99.90;;;;;;5005608;28;20095;-80
2021/12/07 00:19:04;;;;;;;20.55;14.55;;;2.20;99.90;;;;;;5011817;28;20470;-80
2021/12/07 00:21:30;;;;;;;17.23;12.70;;;2.10;99.90;;;;;;5005639;28;20057;-80
2021/12/07 00:23:56;;;;;;;21.02;14.70;;;2.00;99.90;;;;;;5011092;28;20056;-82
2021/12/07 00:26:21;;;;;;;24.10;15.73;;;2.00;99.90;;;;;;5006229;28;20041;-85
2021/12/07 00:28:50;;;;;;;18.88;14.15;;;2.00;99.90;;;;;;5004833;28;20453;-83
2021/12/07 00:31:24;;;;;;;19.85;15.23;;;2.00;99.90;;;;;;5018006;28;20399;-84
2021/12/07 00:34:06;;;;;;;16.02;13.40;;;1.70;99.90;;;;;;5002433;28;20101;-84
2021/12/07 00:36:31;;;;;;;18.83;14.27;;;1.90;99.90;;;;;;5008327;28;20133;-86
2021/12/07 00:38:57;;;;;;;18.85;14.82;;;1.90;99.90;;;;;;5010352;28;20444;-82
2021/12/07 00:41:23;;;;;;;16.92;13.43;;;1.80;99.90;;;;;;5005255;28;20500;-83
2021/12/07 00:43:49;;;;;;;18.80;14.10;;;1.70;99.90;;;;;;5009198;28;20125;-84
2021/12/07 00:46:14;;;;;;;17.52;13.50;;;1.70;99.90;;;;;;5004431;28;20060;-83
2021/12/07 00:48:40;;;;;;;17.23;13.77;;;2.10;99.90;;;;;;5007391;28;20053;-84
2021/12/07 00:51:06;;;;;;;16.13;13.25;;;1.70;99.90;;;;;;4992339;28;20041;-84
2021/12/07 00:53:31;;;;;;;16.15;13.07;;;1.60;99.90;;;;;;5006815;28;20038;-84
2021/12/07 00:56:01;;;;;;;17.88;14.38;;;1.60;99.90;;;;;;5010299;28;20045;-81
2021/12/07 00:58:28;;;;;;;18.40;14.30;;;1.50;99.90;;;;;;5009513;28;20049;-81
2021/12/07 01:01:02;;;;;;;17.65;13.88;;;1.50;99.90;;;;;;5009284;28;20117;-78
2021/12/07 01:03:29;;;;;;;17.40;13.57;;;2.00;99.90;;;;;;5003230;28;20515;-78
2021/12/07 01:06:06;;;;;;;19.10;14.30;;;1.40;99.90;;;;;;5009703;28;20038;-81
2021/12/07 01:24:56;;;;;;;19.08;13.35;;;1.30;99.90;;;;;;5004844;28;20133;-85
2021/12/07 01:27:22;;;;;;;16.73;12.63;;;1.20;99.90;;;;;;5006107;28;20124;-84
2021/12/07 01:29:59;;;;;;;16.15;12.77;;;1.30;99.90;;;;;;5008604;28;20046;-83
2021/12/07 01:32:41;;;;;;;17.67;13.10;;;1.30;99.90;;;;;;5005595;28;20494;-83
2021/12/07 01:35:37;;;;;;;16.92;12.90;;;1.80;99.90;;;;;;5004469;28;20383;-83
2021/12/07 01:41:07;;;;;;;17.98;12.68;;;1.10;99.90;;;;;;4983195;28;20103;-82
2021/12/07 02:00:09;;;;;;;13.68;11.10;;;1.20;99.90;;;;;;5003533;28;20297;-78
2021/12/07 02:02:35;;;;;;;14.77;12.15;;;1.20;99.90;;;;;;4987043;28;20085;-78
2021/12/07 02:05:01;;;;;;;13.38;11.63;;;1.20;99.90;;;;;;5016941;28;20516;-78
2021/12/07 02:07:27;;;;;;;17.15;12.27;;;1.20;99.90;;;;;;5004902;28;20049;-83
2021/12/07 02:09:57;;;;;;;14.98;12.25;;;1.00;99.90;;;;;;5001534;28;20480;-84
2021/12/07 02:12:24;;;;;;;14.50;11.68;;;1.20;99.90;;;;;;5004478;28;20038;-84
2021/12/07 02:14:49;;;;;;;14.73;12.55;;;1.10;99.90;;;;;;5007274;28;20069;-84
2021/12/07 02:17:21;;;;;;;14.57;11.85;;;1.60;99.90;;;;;;5009365;28;20066;-84
2021/12/07 02:19:46;;;;;;;14.25;12.30;;;1.20;99.90;;;;;;5007237;28;20054;-82
2021/12/07 02:22:12;;;;;;;15.68;12.45;;;1.20;99.90;;;;;;5008336;28;20049;-83
2021/12/07 02:24:38;;;;;;;13.48;11.25;;;1.10;99.90;;;;;;5006120;28;20153;-84
2021/12/07 02:27:04;;;;;;;13.88;11.63;;;1.20;99.90;;;;;;5008231;28;20080;-81
2021/12/07 02:29:30;;;;;;;15.43;11.77;;;1.30;99.90;;;;;;5006334;28;20041;-85
2021/12/07 02:31:57;;;;;;;15.35;12.48;;;2.80;99.90;;;;;;5008898;28;20045;-84
2021/12/07 02:34:24;;;;;;;18.83;12.85;;;1.30;99.90;;;;;;5010523;28;20091;-85
2021/12/07 02:36:51;;;;;;;15.80;12.25;;;1.30;99.90;;;;;;5012400;28;20518;-78
2021/12/07 02:39:17;;;;;;;14.05;12.07;;;2.00;99.90;;;;;;5009779;28;20151;-84
2021/12/07 02:41:43;;;;;;;15.73;13.07;;;1.30;99.90;;;;;;4992185;28;20121;-81
2021/12/07 02:44:09;;;;;;;14.35;11.73;;;1.30;99.90;;;;;;5012510;28;20113;-84
2021/12/07 02:46:37;;;;;;;15.85;12.50;;;1.30;99.90;;;;;;5008774;28;20066;-85
2021/12/07 02:49:07;;;;;;;17.88;12.95;;;1.30;99.90;;;;;;5012212;28;20038;-80
2021/12/07 02:51:34;;;;;;;14.35;12.35;;;1.30;99.90;;;;;;5008021;28;20504;-81
2021/12/07 02:54:00;;;;;;;16.25;12.48;;;1.30;99.90;;;;;;5011788;28;20045;-79
2021/12/07 02:56:25;;;;;;;16.92;12.82;;;1.30;99.90;;;;;;5009426;28;20393;-85
2021/12/07 02:58:57;;;;;;;14.38;11.77;;;1.00;99.90;;;;;;5013259;28;20124;-83
2021/12/07 03:01:27;;;;;;;14.02;11.02;;;1.30;99.90;;;;;;5009081;28;20038;-84
2021/12/07 03:04:08;;;;;;;13.57;11.35;;;1.30;99.90;;;;;;5011563;28;20046;-85
2021/12/07 03:07:01;;;;;;;13.70;11.13;;;1.30;99.90;;;;;;5007775;28;20398;-79
2021/12/07 03:28:21;;;;;;;10.52;9.30;;;1.20;99.90;;;;;;5005858;28;20053;-85
2021/12/07 03:30:47;;;;;;;13.35;9.63;;;1.20;99.90;;;;;;5010356;28;20493;-83
2021/12/07 03:33:13;;;;;;;12.70;9.43;;;1.20;99.90;;;;;;5009902;28;20040;-82
2021/12/07 03:35:38;;;;;;;12.20;9.82;;;1.20;99.90;;;;;;5007735;28;20060;-85
2021/12/07 03:38:06;;;;;;;10.77;9.32;;;1.10;99.90;;;;;;4989103;28;20047;-83
2021/12/07 03:40:32;;;;;;;12.30;10.07;;;1.10;99.90;;;;;;5007685;28;20046;-81
2021/12/07 03:43:00;;;;;;;11.38;9.50;;;1.20;99.90;;;;;;5009984;28;20084;-84
2021/12/07 03:45:26;;;;;;;12.05;9.07;;;1.10;99.90;;;;;;5006342;28;20081;-86
2021/12/07 03:47:53;;;;;;;14.18;10.40;;;1.10;99.90;;;;;;5010110;28;20746;-81
2021/12/07 03:50:22;;;;;;;12.18;10.10;;;1.10;99.90;;;;;;5007623;28;20036;-83
2021/12/07 03:52:49;;;;;;;13.80;9.30;;;1.00;99.90;;;;;;5014655;28;20052;-85
2021/12/07 03:55:15;;;;;;;11.07;9.35;;;1.10;99.90;;;;;;5006556;28;20093;-85
2021/12/07 03:57:40;;;;;;;13.18;10.50;;;1.10;99.90;;;;;;5009485;28;20517;-86
2021/12/07 04:00:09;;;;;;;11.98;9.63;;;1.00;99.90;;;;;;5009616;28;20052;-84
2021/12/07 04:02:40;;;;;;;12.70;9.50;;;1.10;99.90;;;;;;5008370;28;20124;-82
2021/12/07 04:05:12;;;;;;;11.82;9.50;;;1.00;99.90;;;;;;5018198;28;20042;-85
2021/12/07 04:07:38;;;;;;;10.68;9.13;;;1.10;99.90;;;;;;5005645;28;20457;-84
2021/12/07 04:10:06;;;;;;;10.63;8.63;;;1.10;99.90;;;;;;5008327;28;20073;-78
2021/12/07 04:12:32;;;;;;;13.15;10.52;;;1.10;99.90;;;;;;5005237;28;20042;-79
2021/12/07 04:14:58;;;;;;;10.68;9.18;;;1.50;99.90;;;;;;5007371;28;20502;-84
2021/12/07 04:17:23;;;;;;;11.35;9.55;;;1.60;99.90;;;;;;5009995;28;20073;-83
2021/12/07 04:19:49;;;;;;;12.45;9.30;;;1.10;99.90;;;;;;5008663;28;20042;-84
2021/12/07 04:22:14;;;;;;;11.20;9.43;;;1.70;99.90;;;;;;5017126;28;20078;-84
2021/12/07 04:24:40;;;;;;;13.63;9.80;;;1.00;99.90;;;;;;5007338;28;20083;-85
2021/12/07 04:27:06;;;;;;;12.55;9.13;;;1.00;99.90;;;;;;5009388;28;20037;-85
2021/12/07 04:29:31;;;;;;;13.60;8.45;;;1.10;99.90;;;;;;5004629;28;20038;-85
2021/12/07 04:31:58;;;;;;;10.77;8.85;;;1.60;99.90;;;;;;5007834;28;20382;-85
2021/12/07 04:34:23;;;;;;;10.13;7.95;;;1.20;99.90;;;;;;5010957;28;20100;-83
2021/12/07 04:36:50;;;;;;;10.80;8.55;;;1.20;99.90;;;;;;5005681;28;20442;-83
2021/12/07 04:39:15;;;;;;;9.70;8.18;;;1.70;99.90;;;;;;5009928;28;20046;-85
2021/12/07 04:41:43;;;;;;;10.68;7.85;;;1.10;99.90;;;;;;5008107;28;20064;-83
2021/12/07 04:44:09;;;;;;;10.75;8.55;;;1.20;99.90;;;;;;4987844;28;20049;-82
2021/12/07 04:46:43;;;;;;;9.23;7.45;;;1.20;99.90;;;;;;5008275;28;20131;-80
2021/12/07 04:57:46;;;;;;;8.55;7.03;;;1.20;99.90;;;;;;4975021;28;20120;-80
2021/12/07 05:00:25;;;;;;;11.65;7.78;;;1.30;99.90;;;;;;5005678;28;20046;-81
2021/12/07 05:02:56;;;;;;;9.50;7.20;;;1.30;99.90;;;;;;5007007;28;20067;-82
2021/12/07 05:05:25;;;;;;;10.77;8.43;;;1.10;99.90;;;;;;5003762;28;20680;-86
2021/12/07 05:07:54;;;;;;;12.07;7.30;;;1.30;99.90;;;;;;5010887;28;20041;-82
2021/12/07 05:10:30;;;;;;;10.52;7.75;;;1.30;99.90;;;;;;5006361;28;20103;-84
2021/12/07 05:39:57;;;;;;;12.50;7.80;;;1.90;99.90;;;;;;5007599;28;20651;-86
2021/12/07 05:42:23;;;;;;;9.73;6.65;;;1.30;99.90;;;;;;5009683;28;20037;-83
2021/12/07 05:44:50;;;;;;;14.93;7.90;;;1.20;99.90;;;;;;5004866;28;20128;-83
2021/12/07 05:47:16;;;;;;;15.45;8.60;;;1.20;99.90;;;;;;5006357;28;20070;-84
2021/12/07 05:49:42;;;;;;;10.63;7.82;;;1.20;99.90;;;;;;5008420;28;20049;-83
2021/12/07 05:52:07;;;;;;;11.25;7.07;;;1.20;99.90;;;;;;5004051;28;20038;-82
2021/12/07 05:54:33;;;;;;;12.35;7.40;;;1.30;99.90;;;;;;5003672;28;20481;-80
2021/12/07 05:56:58;;;;;;;16.27;8.57;;;1.30;99.90;;;;;;5007676;28;20046;-78
2021/12/07 05:59:24;;;;;;;8.18;6.45;;;1.20;99.90;;;;;;5005048;28;20137;-87
2021/12/07 06:01:50;;;;;;;8.35;6.35;;;1.20;99.90;;;;;;5010259;28;20496;-87
2021/12/07 06:04:15;;;;;;;9.15;6.32;;;1.30;99.90;;;;;;5005212;28;20093;-85
2021/12/07 06:06:41;;;;;;;8.38;6.57;;;1.30;99.90;;;;;;4992431;28;20046;-83
2021/12/07 06:09:07;;;;;;;11.05;7.03;;;1.20;99.90;;;;;;5008676;28;20043;-88
2021/12/07 06:11:33;;;;;;;9.15;6.68;;;1.30;99.90;;;;;;5012248;28;20520;-85
2021/12/07 06:13:58;;;;;;;11.85;7.40;;;1.30;99.90;;;;;;5009347;28;20061;-86
2021/12/07 06:16:29;;;;;;;17.55;8.32;;;1.20;99.90;;;;;;5009168;28;20046;-87
2021/12/07 06:18:55;;;;;;;12.90;8.07;;;1.20;99.90;;;;;;5011956;28;20046;-87
2021/12/07 06:21:20;;;;;;;12.73;6.90;;;1.20;99.90;;;;;;5006175;28;20396;-86
2021/12/07 06:23:46;;;;;;;11.23;6.68;;;1.30;99.90;;;;;;5011556;28;20058;-87
2021/12/07 06:26:11;;;;;;;9.25;6.88;;;1.30;99.90;;;;;;5009236;28;20038;-87
2021/12/07 06:28:37;;;;;;;10.48;6.68;;;1.30;99.90;;;;;;5011559;28;20049;-81
2021/12/07 06:31:03;;;;;;;11.98;6.20;;;1.30;99.90;;;;;;5009118;28;20138;-78
2021/12/07 06:33:29;;;;;;;12.50;6.65;;;1.40;99.90;;;;;;5008583;28;20095;-87
2021/12/07 06:35:58;;;;;;;7.95;6.43;;;1.40;99.90;;;;;;5013071;28;20482;-86
2021/12/07 06:38:29;;;;;;;23.13;14.95;;;1.40;99.90;;;;;;4986990;28;20053;-80
2021/12/07 06:40:56;;;;;;;13.73;7.45;;;1.90;99.90;;;;;;5011888;28;20075;-83
2021/12/07 06:43:22;;;;;;;9.70;5.97;;;1.10;99.90;;;;;;5007180;28;20045;-82
2021/12/07 06:45:48;;;;;;;12.32;6.68;;;1.30;99.90;;;;;;5009800;28;20038;-86
2021/12/07 06:48:14;;;;;;;10.77;6.50;;;1.20;99.90;;;;;;5012119;28;20119;-87
2021/12/07 06:50:40;;;;;;;12.15;6.20;;;1.20;99.90;;;;;;5010334;28;20073;-79
2021/12/07 06:53:07;;;;;;;9.38;6.35;;;1.30;99.90;;;;;;5010423;28;20131;-86
2021/12/07 06:55:33;;;;;;;12.45;6.93;;;1.30;99.90;;;;;;5008765;28;20038;-84
2021/12/07 06:57:58;;;;;;;8.55;6.53;;;1.80;99.90;;;;;;5011378;28;20076;-79
2021/12/07 07:00:24;;;;;;;13.20;6.60;;;1.30;99.90;;;;;;5006445;28;20049;-86
2021/12/07 07:02:50;;;;;;;11.63;6.38;;;1.20;99.90;;;;;;5008262;28;20046;-84
2021/12/07 07:05:18;;;;;;;11.98;5.82;;;1.30;99.90;;;;;;5012600;28;20030;-86
2021/12/07 07:07:44;;;;;;;11.20;6.28;;;1.30;99.90;;;;;;5008437;28;20394;-79
2021/12/07 07:10:12;;;;;;;9.02;5.88;;;1.30;99.90;;;;;;5009896;28;20077;-87
2021/12/07 07:12:38;;;;;;;9.75;5.80;;;1.20;99.90;;;;;;5008591;28;20096;-83
2021/12/07 07:15:06;;;;;;;16.20;6.20;;;1.30;99.90;;;;;;5009572;28;20045;-81
2021/12/07 07:17:31;;;;;;;10.85;6.63;;;1.20;99.90;;;;;;5006688;28;20054;-86
2021/12/07 07:19:57;;;;;;;12.07;5.80;;;2.10;99.90;;;;;;5008575;28;20054;-85
2021/12/07 07:22:22;;;;;;;12.38;6.03;;;1.20;99.90;;;;;;5012070;28;20052;-85
2021/12/07 07:24:48;;;;;;;9.65;6.30;;;1.20;99.90;;;;;;5006711;28;20145;-85
2021/12/07 07:27:14;;;;;;;9.23;6.35;;;1.20;99.90;;;;;;5019717;28;20045;-81
2021/12/07 07:29:40;;;;;;;14.20;7.60;;;1.20;99.90;;;;;;5008564;28;20088;-86
2021/12/07 07:32:06;;;;;;;105.03;63.65;;;1.40;99.90;;;;;;5003161;28;20435;-82
2021/12/07 07:34:31;;;;;;;16.65;10.55;;;1.20;99.90;;;;;;5007439;28;20545;-82
2021/12/07 07:36:57;;;;;;;14.38;7.35;;;1.10;99.90;;;;;;5008931;28;20046;-78
2021/12/07 07:39:22;;;;;;;19.55;6.97;;;1.20;99.90;;;;;;5010189;28;20092;-84
2021/12/07 07:41:49;;;;;;;14.55;6.40;;;1.20;99.90;;;;;;5009776;28;20433;-85
2021/12/07 07:44:14;;;;;;;15.88;6.28;;;1.30;99.90;;;;;;5006264;28;20037;-86
2021/12/07 07:46:40;;;;;;;10.23;5.25;;;1.20;99.90;;;;;;5008511;28;20049;-85
2021/12/07 07:49:06;;;;;;;10.10;5.40;;;1.30;99.90;;;;;;5004047;28;20038;-85
2021/12/07 07:51:33;;;;;;;10.32;5.75;;;1.30;99.90;;;;;;5007821;28;20041;-84
2021/12/07 07:53:59;;;;;;;14.20;5.82;;;1.30;99.90;;;;;;5010467;28;20061;-86
2021/12/07 07:56:29;;;;;;;14.77;4.95;;;1.30;99.90;;;;;;5007217;28;20037;-86
2021/12/07 07:58:56;;;;;;;16.13;5.97;;;1.30;99.90;;;;;;5009003;28;20200;-85
2021/12/07 08:01:29;;;;;;;13.68;5.97;;;1.20;99.90;;;;;;5004671;28;20046;-79
2021/12/07 08:03:56;;;;;;;16.33;6.63;;;1.80;99.90;;;;;;5008595;28;20046;-85
2021/12/07 08:06:21;;;;;;;12.65;5.88;;;1.60;99.90;;;;;;5004611;28;20289;-85
2021/12/07 08:08:47;;;;;;;225.05;150.57;;;1.50;99.90;;;;;;5007607;28;20187;-83
2021/12/07 08:11:13;;;;;;;14.18;7.20;;;1.30;99.90;;;;;;5010653;28;20041;-86
2021/12/07 08:13:40;;;;;;;20.50;6.78;;;1.80;99.90;;;;;;5006503;28;20037;-85
2021/12/07 08:16:06;;;;;;;11.23;5.78;;;1.30;99.90;;;;;;5015983;28;20049;-84
2021/12/07 08:18:31;;;;;;;12.90;5.93;;;1.40;99.90;;;;;;5004860;28;20050;-84
2021/12/07 08:20:57;;;;;;;12.50;6.18;;;1.30;99.90;;;;;;5008194;28;20041;-84
2021/12/07 08:23:23;;;;;;;14.57;5.82;;;1.40;99.90;;;;;;5004996;28;20733;-82
2021/12/07 08:25:49;;;;;;;19.10;6.28;;;1.40;99.90;;;;;;5007693;28;20046;-86
2021/12/07 08:28:19;;;;;;;13.43;6.53;;;1.60;99.90;;;;;;5009623;28;20038;-86
2021/12/07 08:30:45;;;;;;;11.35;6.28;;;1.40;99.90;;;;;;5007131;28;20045;-81
2021/12/07 08:33:11;;;;;;;11.60;6.35;;;1.50;99.90;;;;;;5009051;28;20229;-85
2021/12/07 08:35:37;;;;;;;13.05;6.38;;;1.50;99.90;;;;;;4969758;28;1009049;-82
2021/12/07 08:38:03;;;;;;;9.32;5.90;;;1.50;99.90;;;;;;5007534;28;20501;-80
2021/12/07 08:40:31;;;;;;;16.08;6.00;;;1.40;99.90;;;;;;5010564;28;20097;-84
2021/12/07 08:42:59;;;;;;;17.70;8.48;;;2.00;99.90;;;;;;5008922;28;20497;-86
2021/12/07 08:45:27;;;;;;;13.25;6.93;;;1.50;99.90;;;;;;5005764;28;20477;-82
2021/12/07 08:47:53;;;;;;;14.18;6.30;;;1.40;99.90;;;;;;5009628;28;20467;-85
2021/12/07 08:50:24;;;;;;;11.27;5.70;;;1.50;99.90;;;;;;5003476;28;20057;-85
2021/12/07 08:52:51;;;;;;;7.53;4.57;;;1.50;99.90;;;;;;5011037;28;20042;-86
2021/12/07 09:00:49;;;;;;;;;;;1.60;99.90;;;;;;5006228;28;20054;-86
2021/12/07 09:03:14;;;;;;;15.23;4.95;;;1.70;99.90;;;;;;5007112;28;19917;-86
2021/12/07 09:05:40;;;;;;;14.57;5.15;;;1.70;99.90;;;;;;5006614;28;20652;-85
2021/12/07 09:08:07;;;;;;;12.40;4.95;;;1.80;99.90;;;;;;5007244;28;20049;-80
2021/12/07 09:10:33;;;;;;;11.82;4.82;;;1.80;99.90;;;;;;5005289;28;20037;-86
2021/12/07 09:12:58;;;;;;;17.15;4.95;;;1.70;99.90;;;;;;4998759;28;20038;-85
2021/12/07 09:15:24;;;;;;;9.18;4.63;;;1.70;99.90;;;;;;5005560;28;20050;-85
2021/12/07 09:17:50;;;;;;;15.18;4.85;;;1.90;99.90;;;;;;5008303;28;20050;-85
2021/12/07 09:20:16;;;;;;;13.32;4.93;;;1.90;99.90;;;;;;5001904;28;20387;-87
2021/12/07 09:22:47;;;;;;;13.77;4.60;;;2.00;99.90;;;;;;5008796;28;20050;-86
2021/12/07 09:25:14;;;;;;;12.63;5.20;;;2.00;99.90;;;;;;4991843;28;20406;-85
2021/12/07 09:27:41;;;;;;;12.27;4.72;;;2.00;99.90;;;;;;5004980;28;20478;-86
2021/12/07 09:30:09;;;;;;;14.73;4.68;;;2.10;99.90;;;;;;5010252;28;20049;-83
2021/12/07 09:32:34;;;;;;;15.38;4.63;;;2.10;99.90;;;;;;5010804;28;20049;-88
2021/12/07 09:35:02;;;;;;;12.38;5.90;;;2.10;99.90;;;;;;5015424;28;20056;-81
2021/12/07 09:37:28;;;;;;;14.63;5.47;;;2.10;99.90;;;;;;5006875;28;20092;-86
2021/12/07 09:39:53;;;;;;;15.43;4.70;;;2.20;99.90;;;;;;5008880;28;20066;-85
2021/12/07 09:42:19;;;;;;;23.88;5.40;;;2.90;99.90;;;;;;5002906;28;20030;-83
2021/12/07 09:44:45;;;;;;;12.27;4.20;;;2.10;99.90;;;;;;5005620;28;20103;-84
2021/12/07 09:47:11;;;;;;;19.40;5.07;;;2.30;99.90;;;;;;5004027;28;20038;-79
2021/12/07 09:49:36;;;;;;;24.77;4.97;;;2.30;99.90;;;;;;5010007;28;20042;-77
2021/12/07 09:52:02;;;;;;;21.48;4.78;;;2.40;99.90;;;;;;5005655;28;20049;-79
2021/12/07 09:54:28;;;;;;;15.25;4.45;;;2.40;99.90;;;;;;5008848;28;20436;-82
2021/12/07 09:56:54;;;;;;;13.60;4.25;;;2.50;99.90;;;;;;5009992;28;20048;-80
2021/12/07 09:59:19;;;;;;;17.17;5.70;;;2.60;99.90;;;;;;5008548;28;20124;-81
2021/12/07 10:01:45;;;;;;;17.02;4.55;;;2.60;99.90;;;;;;5008191;28;20084;-82
2021/12/07 10:04:11;;;;;;;19.17;5.32;;;2.70;99.90;;;;;;5012381;28;20033;-86
2021/12/07 10:06:37;;;;;;;11.50;5.20;;;2.80;99.90;;;;;;5004476;28;20046;-81
2021/12/07 10:09:04;;;;;;;29.23;13.48;;;2.80;99.90;;;;;;5010778;28;20048;-81
2021/12/07 10:11:30;;;;;;;41.08;21.20;;;2.70;99.90;;;;;;5006852;28;20509;-89
2021/12/07 10:13:56;;;;;;;19.48;6.78;;;2.90;99.90;;;;;;5004342;28;20073;-86
2021/12/07 10:16:24;;;;;;;17.77;5.15;;;2.90;99.90;;;;;;5008702;28;20124;-82
2021/12/07 10:18:50;;;;;;;15.00;4.60;;;3.00;99.90;;;;;;5011943;28;20050;-82
2021/12/07 10:21:24;;;;;;;20.88;5.05;;;3.10;99.90;;;;;;5006752;28;20038;-81
2021/12/07 10:24:07;;;;;;;20.40;4.33;;;3.20;99.90;;;;;;5009893;28;20500;-84
2021/12/07 10:26:36;;;;;;;13.18;4.50;;;3.20;99.90;;;;;;5001924;28;20054;-83
2021/12/07 10:29:13;;;;;;;10.80;4.05;;;3.20;99.90;;;;;;5009128;28;20052;-78
2021/12/07 10:31:49;;;;;;;19.05;4.85;;;3.40;99.90;;;;;;5013688;28;20081;-84
2021/12/07 10:34:18;;;;;;;10.00;4.03;;;3.40;99.90;;;;;;5005229;28;20045;-79
2021/12/07 10:37:15;;;;;;;13.35;4.00;;;3.40;99.90;;;;;;4983013;28;20060;-86
2021/12/07 10:39:52;;;;;;;10.15;3.65;;;3.50;99.90;;;;;;5009634;28;20053;-84
2021/12/07 10:42:27;;;;;;;14.02;4.32;;;3.60;99.90;;;;;;5004159;28;20482;-86
2021/12/07 10:44:53;;;;;;;8.30;3.58;;;3.60;99.90;;;;;;5007470;28;20042;-81
2021/12/07 10:47:22;;;;;;;19.90;5.13;;;3.60;99.90;;;;;;5004897;28;20069;-79
2021/12/07 10:49:50;;;;;;;12.73;3.85;;;3.70;99.90;;;;;;5007763;28;20474;-84
2021/12/07 10:52:16;;;;;;;16.48;4.43;;;3.70;99.90;;;;;;5012085;28;20060;-82
2021/12/07 10:55:00;;;;;;;16.38;4.22;;;3.80;99.90;;;;;;5008568;28;20049;-87
2021/12/07 10:57:31;;;;;;;25.13;5.32;;;3.80;99.90;;;;;;5006312;28;20073;-79
2021/12/07 11:00:17;;;;;;;20.50;4.32;;;3.90;99.90;;;;;;5009887;28;20074;-89
2021/12/07 11:03:00;;;;;;;23.00;5.45;;;4.00;99.90;;;;;;5001200;28;20046;-87
2021/12/07 11:05:32;;;;;;;12.23;3.97;;;4.10;99.90;;;;;;5010586;28;20077;-79
2021/12/07 11:08:00;;;;;;;18.65;5.32;;;4.20;99.90;;;;;;5008840;28;20072;-89
2021/12/07 11:10:32;;;;;;;17.25;5.28;;;4.20;99.90;;;;;;4991419;28;20065;-85
2021/12/07 11:13:19;;;;;;;11.18;3.65;;;4.30;99.90;;;;;;4987764;28;20054;-79
2021/12/07 11:15:51;;;;;;;16.08;4.03;;;4.30;99.90;;;;;;5008348;28;20054;-78
2021/12/07 11:18:22;;;;;;;15.27;6.38;;;4.30;99.90;;;;;;5010668;28;20050;-80
2021/12/07 11:20:48;;;;;;;14.38;4.18;;;4.40;99.90;;;;;;5013654;28;20389;-86
2021/12/07 11:23:17;;;;;;;20.20;4.05;;;4.40;99.90;;;;;;5010482;28;20538;-82
2021/12/07 11:29:39;;;;;;;16.42;3.60;;;4.40;99.90;;;;;;5009448;28;20049;-83
2021/12/07 11:31:56;;;;;;;13.15;3.85;;;4.50;99.90;;;;;;4969917;28;20126;-78
2021/12/07 11:34:26;;;;;;;10.88;4.18;;;4.40;99.90;;;;;;4967568;28;20059;-75
2021/12/07 11:37:08;;;;;;;17.27;4.75;;;4.40;99.90;;;;;;5000590;28;20069;-76
2021/12/07 11:39:50;;;;;;;15.95;3.90;;;4.50;99.90;;;;;;5012323;28;20029;-84
2021/12/07 11:42:29;;;;;;;16.15;4.30;;;4.50;99.90;;;;;;5007110;28;20049;-83
2021/12/07 11:45:02;;;;;;;13.98;3.38;;;4.60;99.90;;;;;;5009270;28;20038;-79
2021/12/07 11:47:44;;;;;;;15.52;3.05;;;4.60;99.90;;;;;;5008084;28;20099;-84
2021/12/07 11:50:24;;;;;;;48.25;23.30;;;4.60;99.90;;;;;;4991740;28;20053;-82
2021/12/07 11:52:53;;;;;;;20.20;6.07;;;4.60;99.90;;;;;;5008867;28;20046;-82
2021/12/07 11:55:20;;;;;;;14.98;3.78;;;4.60;99.90;;;;;;5007480;28;20053;-83
2021/12/07 11:57:46;;;;;;;12.77;3.47;;;4.70;99.90;;;;;;5004372;28;20046;-80
2021/12/07 12:00:19;;;;;;;11.93;3.55;;;4.70;99.90;;;;;;4990205;28;20133;-84
2021/12/07 12:02:45;;;;;;;15.18;3.38;;;6.60;99.90;;;;;;5009954;28;20043;-85
2021/12/07 12:05:10;;;;;;;16.23;3.35;;;4.80;99.90;;;;;;5010042;28;20386;-81
2021/12/07 12:07:40;;;;;;;16.90;3.92;;;4.70;99.90;;;;;;5006640;28;20458;-90
2021/12/07 12:10:07;;;;;;;16.98;3.40;;;4.80;99.90;;;;;;5008874;28;20099;-80
2021/12/07 12:12:48;;;;;;;13.85;4.10;;;4.80;99.90;;;;;;5011317;28;20318;-86
2021/12/07 12:15:55;;;;;;;17.85;3.78;;;4.80;99.90;;;;;;5008265;28;20045;-91
2021/12/07 12:18:46;;;;;;;21.17;4.22;;;4.90;99.90;;;;;;5003094;28;20905;-82
2021/12/07 12:21:40;;;;;;;13.13;3.60;;;4.90;99.90;;;;;;5007082;28;20041;-89
2021/12/07 12:24:17;;;;;;;14.35;2.97;;;4.90;99.90;;;;;;5007049;28;20490;-80
2021/12/07 12:26:45;;;;;;;13.57;3.22;;;4.90;99.90;;;;;;5003907;28;20084;-87
2021/12/07 12:29:23;;;;;;;14.63;3.25;;;5.00;99.90;;;;;;5009185;28;20103;-82
2021/12/07 12:31:54;;;;;;;15.98;4.18;;;5.00;99.90;;;;;;5004756;28;20095;-86
2021/12/07 12:34:24;;;;;;;13.77;3.10;;;5.00;99.90;;;;;;5001733;28;20039;-81
2021/12/07 12:37:14;;;;;;;10.23;3.55;;;5.00;99.90;;;;;;5011589;28;20127;-82
2021/12/07 12:39:43;;;;;;;19.55;5.22;;;5.00;99.90;;;;;;5006453;28;20092;-83
2021/12/07 12:42:09;;;;;;;13.82;4.47;;;5.00;99.90;;;;;;5005044;28;20038;-91
2021/12/07 12:44:35;;;;;;;19.05;5.22;;;5.00;99.90;;;;;;5010171;28;20049;-82
2021/12/07 12:47:03;;;;;;;8.57;3.15;;;5.00;99.90;;;;;;5009627;28;20465;-83
2021/12/07 12:49:40;;;;;;;11.32;3.28;;;5.00;99.90;;;;;;5010917;28;20505;-81
2021/12/07 12:52:06;;;;;;;16.65;3.72;;;5.00;99.90;;;;;;5009668;28;20042;-91
2021/12/07 12:54:43;;;;;;;12.68;3.58;;;5.00;99.90;;;;;;5008770;28;20057;-79
2021/12/07 12:57:15;;;;;;;10.02;3.53;;;5.00;99.90;;;;;;5007082;28;20405;-79
2021/12/07 12:59:44;;;;;;;65.20;34.30;;;5.00;99.90;;;;;;4999745;28;20664;-80
2021/12/07 13:02:11;;;;;;;17.05;6.22;;;5.10;99.90;;;;;;5009127;28;20421;-77
2021/12/07 13:04:36;;;;;;;14.38;3.05;;;5.10;99.90;;;;;;5011189;28;20133;-78
2021/12/07 13:09:39;;;;;;;14.38;3.83;;;5.20;99.90;;;;;;5007921;28;20064;-78
2021/12/07 13:12:07;;;;;;;11.07;3.63;;;5.20;99.90;;;;;;5002717;28;20042;-78
2021/12/07 13:14:39;;;;;;;14.73;3.58;;;5.50;99.90;;;;;;5003238;28;20049;-79
2021/12/07 13:17:13;;;;;;;15.68;3.60;;;5.20;99.90;;;;;;5010539;28;20045;-77
2021/12/07 13:20:07;;;;;;;12.55;4.13;;;4.40;99.90;;;;;;5005190;28;20057;-80
2021/12/07 13:22:43;;;;;;;8.73;3.10;;;5.20;99.90;;;;;;5009952;28;20052;-80
2021/12/07 13:25:23;;;;;;;15.35;3.40;;;5.20;99.90;;;;;;5010148;28;20665;-78
2021/12/07 13:28:12;;;;;;;8.27;3.25;;;5.30;99.90;;;;;;5008813;28;20084;-80
2021/12/07 13:30:41;;;;;;;17.30;4.05;;;5.20;99.90;;;;;;5001143;28;20097;-81
2021/12/07 13:33:39;;;;;;;12.60;3.22;;;5.20;99.90;;;;;;5004364;28;20441;-81
2021/12/07 13:36:32;;;;;;;11.23;2.83;;;5.20;99.90;;;;;;5002855;28;20985;-78
2021/12/07 13:39:05;;;;;;;19.08;4.10;;;5.20;99.90;;;;;;5004231;28;20081;-82
2021/12/07 13:41:31;;;;;;;13.43;3.15;;;5.20;99.90;;;;;;5005427;28;20037;-81
2021/12/07 13:43:56;;;;;;;17.60;3.38;;;5.20;99.90;;;;;;5006726;28;20085;-80
2021/12/07 13:46:25;;;;;;;16.15;3.63;;;5.60;99.90;;;;;;5004026;28;20508;-77
2021/12/07 13:49:03;;;;;;;13.13;3.15;;;5.20;99.90;;;;;;5006173;28;20052;-80
2021/12/07 13:51:29;;;;;;;10.00;2.83;;;5.10;99.90;;;;;;5004718;28;20041;-78
2021/12/07 13:53:54;;;;;;;13.23;4.07;;;5.10;99.90;;;;;;5006300;28;20046;-78
2021/12/07 13:56:21;;;;;;;11.68;2.75;;;5.10;99.90;;;;;;5008818;28;20145;-81
2021/12/07 13:59:21;;;;;;;21.30;3.63;;;5.10;99.90;;;;;;4991898;28;20065;-82
2021/12/07 14:01:53;;;;;;;12.48;3.25;;;5.10;99.90;;;;;;4995521;28;20526;-81
2021/12/07 14:04:23;;;;;;;13.98;3.22;;;5.10;99.90;;;;;;5005632;28;20038;-77
2021/12/07 14:06:50;;;;;;;13.73;3.45;;;5.00;99.90;;;;;;5004022;28;20053;-81
2021/12/07 14:09:17;;;;;;;18.67;4.35;;;5.10;99.90;;;;;;5009687;28;20034;-78
2021/12/07 14:11:43;;;;;;;11.25;2.63;;;5.00;99.90;;;;;;5004105;28;20410;-80
2021/12/07 14:14:13;;;;;;;10.57;3.85;;;5.00;99.90;;;;;;5009491;28;20030;-80
2021/12/07 14:16:39;;;;;;;15.05;4.38;;;5.00;99.90;;;;;;5004741;28;20561;-80
2021/12/07 14:19:06;;;;;;;11.05;3.42;;;4.90;99.90;;;;;;4995271;28;20074;-78
2021/12/07 14:21:32;;;;;;;9.45;3.40;;;5.00;99.90;;;;;;5005392;28;20401;-81
2021/12/07 14:24:04;;;;;;;17.90;3.75;;;4.90;99.90;;;;;;5007308;28;20041;-81
2021/12/07 14:26:36;;;;;;;15.95;4.32;;;4.90;99.90;;;;;;5007287;28;20042;-79
2021/12/07 14:29:10;;;;;;;13.55;4.05;;;4.80;99.90;;;;;;4992574;28;20047;-78
2021/12/07 14:31:44;;;;;;;15.48;4.00;;;4.80;99.90;;;;;;5010116;28;20841;-80
2021/12/07 14:34:19;;;;;;;16.42;4.45;;;4.80;99.90;;;;;;5008817;28;20046;-80
2021/12/07 14:36:52;;;;;;;;;;;4.80;99.90;;;;;;5010687;28;20141;-81
2021/12/07 14:39:27;;;;;;;24.20;5.22;;;4.80;99.90;;;;;;5005738;28;19926;-80